Sacramento International Airport

KSMF · 加利福尼亚州, 美国

罗盘
风向 的 风向 310° Sacramento International Airport 17L/35R
风: 6 kt, 2 beaufort

4 kt

5 kt
改变
0 ft 6.000 12.000 18.000 24.000 30.000
Cloud Cloud Cloud Cloud Cloud Cloud
BKN 25.000
METAR KSMF 171653Z 31006KT 10SM BKN250 18/12 A3007 RMK AO2 SLP181 T01830117

METAR Sacramento International Airport - KSMF/SMF

Sacramento International Airport是,美国中的大型机场。 该机场位于纬度38,69544和经度-121,59078。 该机场有2条跑道: 17L/35R 和 17R/35L. 本场的ICAO机场代码为KSMF。 该机场的本地机场标识(FAA LID)为SMF。 该机场的IATA代码为SMF。 机场在Oakland FIR中。

该航空气象观测是针对Sacramento International Airport在2024年4月17日 09:53, 当地时间进行的。

机场观察

风向为310°,速度为6 kt。

可见度为10 mi。

有碎云在25.000 ft的高度。 破损或更高的上限为25.000 ft。

温度和风寒是18 °C。 露点为12 °C,相对湿度为68%。 海平面上的气压为30,07 inHg (QNH)。

白天

今天,太阳从06:25升起,在19:45降落。 这适用于Sacramento International Airport,世界夏令时可能有所不同。 当地时间与世界标准时间之间的时差为-7 小时。 夏令时目前正在进行中。

公司介绍

我们没有关于这个机场的公司信息。

体会

到Vliegles.nl去找飞行课程,跳伞和其他飞行体验。 浏览页面,了解Sacramento International Airport附近所有可用的活动。 你也可以使用搜索功能来寻找你所在地附近的特定飞行课程、跳伞或其他飞行体验。

跑道

Id 标题 侧风 逆风 侧风 %
17L/35R 181°-001° 5 kt 4 kt 78 %
17R/35L 181°-001° 5 kt 4 kt 78 %

逆风成分最大的方向会被突出显示,并用于横风计算。 这并不一定意味着这个方向在使用。

乌云

25.000 ft BKN 碎云

温度 & 天气

温度 18,3 °C
露点 11,7 °C
相对湿度 68%
Kp-index 1 (0-9)

评论

AO2自动气象站,可确定降水类型
SLP181海平面压力为30,06 inHg (30,06 inHg)
T01830117温度为18,3 °C (64,9 °F),露点为11,7 °C (53,1 °F)

白天

日出
06:25
中午
13:05
日落
19:45 (8:49)

小工具

你想在你的网站上有一个关于Sacramento International Airport的当前航空天气(METAR)的小部件吗?

显示HTML代码
报告变更